This is the latest recevied weather packets stored in our database for station/object KC2G. If no packets are shown the sender has not sent any weather packets the latest 10 day(s).
| Time | Temp. | Humidity | Pressure | Rain* | Wind** | Luminosity | Snow |
|---|---|---|---|---|---|---|---|
| 1778030155 | 23.89° C | 42% | 1007.5 hPa | 0 mm | 0.45 m/s, 189° | - | - |
| 1778029255 | 23.89° C | 40% | 1007.4 hPa | 0 mm | 0.45 m/s, 119° | - | - |
| 1778028355 | 23.89° C | 38% | 1007.2 hPa | 0 mm | 0.45 m/s, 223° | - | - |
| 1778027456 | 24.44° C | 37% | 1006.9 hPa | 0 mm | 0.45 m/s, 238° | - | - |
| 1778026554 | 24.44° C | 36% | 1006.7 hPa | 0 mm | 0.89 m/s, 138° | - | - |
| 1778025655 | 25° C | 34% | 1006.7 hPa | 0 mm | 0.45 m/s, 136° | - | - |
| 1778024755 | 26.67° C | 30% | 1005.7 hPa | 0 mm | 0.89 m/s, 223° | - | - |
| 1778023855 | 26.67° C | 30% | 1005.7 hPa | 0 mm | 0.89 m/s, 218° | - | - |
| 1778023075 | 26.67° C | 30% | 1005.7 hPa | 0 mm | 0.89 m/s, 218° | - | - |
| 1778022987 | 26.67° C | 30% | 1005.7 hPa | 0 mm | 0.89 m/s, 218° | - | - |
| 1778022955 | 26.67° C | 30% | 1005.7 hPa | 0 mm | 0.89 m/s, 218° | - | - |
| 1778022055 | 26.67° C | 30% | 1005.7 hPa | 0 mm | 0.89 m/s, 218° | - | - |
| 1778021329 | 26.67° C | 30% | 1005.7 hPa | 0 mm | 0.89 m/s, 218° | - | - |
| 1778021155 | 26.67° C | 30% | 1005.7 hPa | 0 mm | 0.89 m/s, 218° | - | - |
| 1778020255 | 26.67° C | 30% | 1005.7 hPa | 0 mm | 0.89 m/s, 218° | - | - |
| 1778019355 | 26.67° C | 30% | 1005.7 hPa | 0 mm | 0.89 m/s, 218° | - | - |
| 1778018455 | 26.67° C | 30% | 1005.7 hPa | 0 mm | 0.89 m/s, 218° | - | - |
| 1778017554 | 27.22° C | 30% | 1005.4 hPa | 0 mm | 0.89 m/s, 219° | - | - |
| 1778017086 | 27.22° C | 30% | 1005.2 hPa | 0 mm | 1.34 m/s, 135° | - | - |
| 1778016655 | 27.22° C | 31% | 1005.2 hPa | 0 mm | 0.89 m/s, 241° | - | - |
| 1778015755 | 27.22° C | 30% | 1005.2 hPa | 0 mm | 1.34 m/s, 135° | - | - |
| 1778014855 | 27.78° C | 28% | 1005.2 hPa | 0 mm | 0.89 m/s, 204° | - | - |
| 1778013955 | 27.78° C | 29% | 1005.3 hPa | 0 mm | 0.89 m/s, 247° | - | - |
| 1778013122 | 27.78° C | 31% | 1005.4 hPa | 0 mm | 0.89 m/s, 197° | - | - |
| 1778013055 | 27.22° C | 29% | 1005.5 hPa | 0 mm | 1.34 m/s, 228° | - | - |
* Rain latest hour (hover to see other rain measurements)
** Current wind speed in m/s (hover to see current wind gust speed)